Time;durP1;ratioP1;P1;durP2;ratioP2;P2;SDS_P1;SDS_P2;PMS_P1;PMS_P2;Temp;Humidity;BMP_temperature;BMP_pressure;BME280_temperature;BME280_humidity;BME280_pressure;Samples;Min_cycle;Max_cycle;Signal;HPM_P1;HPM_P2
2024/04/18 00:02:13;;;;;;;5.87;4.47;;;4.90;93.50;;;6.93;60.98;97090.63;5449444;26;20047;-37
2024/04/18 00:04:41;;;;;;;9.00;4.97;;;4.90;92.40;;;6.90;61.16;97096.22;5448167;26;20034;-37
2024/04/18 00:07:09;;;;;;;6.80;4.80;;;4.80;92.50;;;6.87;61.26;97100.00;5449680;26;20031;-37
2024/04/18 00:09:37;;;;;;;6.07;4.43;;;4.70;93.80;;;6.88;61.01;97090.25;5417786;26;20367;-36
2024/04/18 00:12:05;;;;;;;7.13;4.57;;;4.80;94.10;;;6.88;60.90;97092.88;5447810;26;20432;-36
2024/04/18 00:14:45;;;;;;;7.07;4.47;;;4.80;94.00;;;6.87;61.00;97085.94;5449120;26;20611;-36
2024/04/18 00:17:18;;;;;;;4.72;4.07;;;4.80;93.80;;;6.84;61.48;97086.25;5435336;26;20034;-36
2024/04/18 00:19:46;;;;;;;5.23;3.60;;;4.80;93.00;;;6.82;61.22;97091.69;5449468;26;20039;-35
2024/04/18 00:22:30;;;;;;;5.32;3.70;;;4.80;93.90;;;6.77;61.59;97093.97;5433999;26;20107;-35
2024/04/18 00:25:06;;;;;;;7.53;3.65;;;4.80;94.40;;;6.78;61.62;97085.03;5418223;26;20055;-36
2024/04/18 00:27:53;;;;;;;4.43;2.80;;;4.80;93.50;;;6.79;61.64;97094.63;5449004;26;20031;-35
2024/04/18 00:30:40;;;;;;;4.37;2.80;;;4.80;94.60;;;6.85;61.22;97087.91;5438872;26;20031;-35
2024/04/18 00:33:09;;;;;;;4.73;2.47;;;4.90;94.20;;;6.82;61.40;97090.84;5446792;26;20030;-35
2024/04/18 00:35:38;;;;;;;3.77;2.77;;;4.80;93.20;;;6.80;61.60;97093.63;5448820;26;20031;-35
2024/04/18 00:38:13;;;;;;;4.50;2.50;;;4.80;94.10;;;6.76;61.87;97091.47;5448919;26;20043;-36
2024/04/18 00:40:42;;;;;;;3.97;2.30;;;4.80;93.50;;;6.74;61.54;97096.91;5433335;26;20031;-35
2024/04/18 00:43:20;;;;;;;4.00;2.27;;;4.80;93.30;;;6.76;61.60;97094.09;5448884;26;20031;-35
2024/04/18 00:45:52;;;;;;;4.73;2.60;;;4.80;93.50;;;6.76;61.23;97094.94;5447496;26;20034;-36
2024/04/18 00:48:26;;;;;;;3.13;2.03;;;4.80;92.50;;;6.75;61.74;97095.94;5372647;26;20031;-35
2024/04/18 00:50:59;;;;;;;3.55;2.13;;;4.80;92.80;;;6.74;61.16;97094.25;5417576;26;20042;-35
2024/04/18 00:53:27;;;;;;;3.40;2.37;;;4.70;92.80;;;6.72;61.35;97096.22;5389489;26;20035;-35
2024/04/18 00:56:16;;;;;;;4.93;2.10;;;4.70;93.30;;;6.72;61.40;97092.75;5450500;26;20807;-36
2024/04/18 00:58:48;;;;;;;4.47;2.70;;;4.70;94.00;;;6.70;61.50;97087.59;5421908;26;20034;-36
2024/04/18 01:01:21;;;;;;;3.93;2.37;;;4.70;93.90;;;6.69;61.68;97091.25;5452118;26;20596;-35
2024/04/18 01:03:57;;;;;;;3.37;2.17;;;4.70;94.80;;;6.71;61.85;97089.28;5451725;26;20026;-35
2024/04/18 01:06:43;;;;;;;4.37;2.30;;;4.70;95.50;;;6.64;62.13;97093.50;5441991;26;20034;-35
2024/04/18 01:09:17;;;;;;;5.83;2.67;;;4.70;94.80;;;6.62;62.43;97087.53;5452073;26;20034;-35
2024/04/18 01:12:04;;;;;;;4.07;2.40;;;4.70;94.70;;;6.58;62.34;97088.81;5452044;26;20030;-35
2024/04/18 01:14:33;;;;;;;4.13;2.40;;;4.70;95.20;;;6.64;61.88;97090.84;5418442;26;20105;-36
2024/04/18 01:17:03;;;;;;;4.97;2.10;;;4.70;95.30;;;6.58;62.31;97083.53;5451670;26;20039;-36
2024/04/18 01:19:32;;;;;;;3.20;2.63;;;4.60;94.60;;;6.56;62.36;97093.41;5419011;26;20038;-35
2024/04/18 01:22:01;;;;;;;3.43;1.97;;;4.60;94.80;;;6.60;62.05;97090.31;5451588;26;20030;-35
2024/04/18 01:24:32;;;;;;;2.73;2.27;;;4.70;94.50;;;6.57;62.25;97095.06;5420431;26;20031;-36
2024/04/18 01:27:00;;;;;;;4.13;2.47;;;4.70;94.00;;;6.62;62.07;97100.75;5451867;26;20039;-35
2024/04/18 01:29:44;;;;;;;5.90;2.70;;;4.70;94.00;;;6.58;62.20;97100.22;5451541;26;20036;-35
2024/04/18 01:32:35;;;;;;;4.77;3.00;;;4.70;93.90;;;6.56;62.00;97090.78;5438673;26;20035;-35
2024/04/18 01:35:05;;;;;;;3.67;2.53;;;4.60;94.80;;;6.60;62.07;97102.72;5419438;26;20050;-35
2024/04/18 01:37:46;;;;;;;4.30;2.80;;;4.60;95.20;;;6.66;61.98;97102.94;5451511;26;20035;-35
2024/04/18 01:40:14;;;;;;;2.73;2.10;;;4.70;95.10;;;6.73;62.35;97099.69;5418541;26;20042;-35
2024/04/18 01:42:42;;;;;;;3.97;3.00;;;4.80;95.00;;;6.73;62.10;97095.25;5451504;26;20498;-35
2024/04/18 01:45:26;;;;;;;4.68;2.83;;;4.80;95.10;;;6.70;62.09;97100.81;5423497;26;20003;-35
2024/04/18 01:48:12;;;;;;;6.80;2.93;;;4.70;96.00;;;6.71;62.16;97107.78;5424435;26;20030;-35
2024/04/18 01:51:03;;;;;;;4.27;2.77;;;4.70;96.00;;;6.75;62.16;97106.50;5424005;26;20035;-35
2024/04/18 01:53:31;;;;;;;3.80;2.90;;;4.70;95.10;;;6.74;61.96;97107.47;5450997;26;20027;-35
2024/04/18 01:55:59;;;;;;;4.00;2.80;;;4.70;95.90;;;6.80;62.28;97116.63;5450820;26;20368;-35
2024/04/18 01:58:45;;;;;;;4.37;2.80;;;4.80;95.20;;;6.77;61.94;97109.84;5423903;26;20035;-35
2024/04/18 02:01:13;;;;;;;4.23;2.47;;;4.80;95.40;;;6.75;62.30;97106.50;5419685;26;20046;-35
2024/04/18 02:03:41;;;;;;;3.50;2.80;;;4.70;95.70;;;6.78;62.35;97115.94;5451015;26;20484;-35
2024/04/18 02:06:12;;;;;;;3.23;2.63;;;4.70;95.80;;;6.78;62.01;97106.19;5417715;26;20034;-35
2024/04/18 02:08:49;;;;;;;5.20;2.93;;;4.70;95.60;;;6.76;61.83;97107.34;5450676;26;20031;-35
2024/04/18 02:11:39;;;;;;;5.30;2.93;;;4.70;95.30;;;6.69;62.36;97117.69;5438299;26;20030;-35
2024/04/18 02:14:13;;;;;;;4.80;3.10;;;4.60;95.60;;;6.73;62.40;97115.56;5420002;26;20030;-35
2024/04/18 02:16:41;;;;;;;4.27;2.73;;;4.70;95.40;;;6.74;62.40;97112.78;5418993;26;20031;-35
2024/04/18 02:19:25;;;;;;;4.83;3.10;;;4.70;95.60;;;6.75;62.21;97125.03;5450992;26;20031;-35
2024/04/18 02:22:18;;;;;;;;;;;4.70;95.70;;;6.74;62.39;97119.88;5451325;26;20036;-35
2024/04/18 02:25:11;;;;;;;4.43;3.03;;;4.70;95.90;;;6.72;62.37;97119.19;5423912;26;19954;-36
2024/04/18 02:27:44;;;;;;;4.20;2.90;;;4.70;95.80;;;6.74;62.21;97123.34;5449947;26;20027;-36
2024/04/18 02:30:24;;;;;;;3.70;2.87;;;4.70;95.60;;;6.74;62.03;97125.16;5423044;26;20137;-36
2024/04/18 02:33:13;;;;;;;4.97;3.70;;;4.70;95.70;;;6.63;62.48;97118.28;5423517;26;20505;-36
2024/04/18 02:35:47;;;;;;;4.63;3.50;;;4.70;95.50;;;6.64;62.34;97126.06;5420170;26;20482;-36
2024/04/18 02:38:34;;;;;;;4.73;3.43;;;4.70;96.00;;;6.60;62.66;97119.41;5437012;26;20030;-36
2024/04/18 02:41:07;;;;;;;3.90;2.93;;;4.60;94.90;;;6.65;62.26;97119.81;5418816;26;20035;-36
2024/04/18 02:43:52;;;;;;;5.03;3.40;;;4.70;95.60;;;6.62;62.59;97127.19;5440564;26;20099;-36
2024/04/18 02:46:23;;;;;;;4.87;3.17;;;4.60;95.30;;;6.65;62.55;97119.81;5418626;26;20052;-36
2024/04/18 02:49:10;;;;;;;4.80;3.30;;;4.70;95.30;;;6.70;62.09;97127.28;5450273;26;20030;-36
2024/04/18 02:51:56;;;;;;;6.07;3.80;;;4.70;95.50;;;6.73;62.44;97126.13;5450182;26;20027;-36
2024/04/18 02:54:45;;;;;;;4.57;3.33;;;4.70;95.50;;;6.75;62.25;97122.38;5450117;26;20058;-36
2024/04/18 02:57:13;;;;;;;5.47;4.10;;;4.80;94.80;;;6.76;62.67;97126.69;5449892;26;20030;-35
2024/04/18 02:59:41;;;;;;;5.87;3.47;;;4.80;95.10;;;6.78;62.37;97129.19;5448586;26;20039;-36
2024/04/18 03:02:25;;;;;;;6.70;4.20;;;4.80;94.50;;;6.80;62.43;97124.56;5448633;26;20035;-36
2024/04/18 03:05:16;;;;;;;4.93;3.53;;;4.80;95.20;;;6.81;62.25;97126.25;5449426;26;20039;-36
2024/04/18 03:07:44;;;;;;;4.83;4.03;;;4.80;95.40;;;6.85;62.43;97124.97;5450564;26;20030;-36
2024/04/18 03:10:12;;;;;;;5.00;4.07;;;4.90;95.50;;;6.89;62.35;97131.63;5418446;26;20031;-36
2024/04/18 03:12:58;;;;;;;6.30;3.77;;;5.00;95.40;;;6.90;62.42;97131.47;5449810;26;20046;-36
2024/04/18 03:15:46;;;;;;;5.50;3.90;;;4.90;94.90;;;6.95;62.20;97135.47;5413333;26;20042;-35
2024/04/18 03:18:14;;;;;;;5.90;4.50;;;5.00;95.40;;;6.94;62.25;97133.78;5449867;26;20038;-35
2024/04/18 03:20:52;;;;;;;7.43;4.60;;;4.90;94.70;;;6.96;62.40;97132.69;5416254;26;20058;-36
2024/04/18 03:23:40;;;;;;;6.83;4.93;;;5.00;95.20;;;6.90;61.95;97131.47;5409360;26;20040;-36
2024/04/18 03:26:08;;;;;;;10.33;5.63;;;4.90;94.60;;;6.90;62.05;97133.25;5442868;26;20034;-36
2024/04/18 03:28:35;;;;;;;9.03;5.57;;;4.90;95.80;;;6.94;62.04;97131.16;5449614;26;20032;-36
2024/04/18 03:31:03;;;;;;;6.50;4.77;;;4.90;95.00;;;6.94;62.31;97136.44;5450114;26;20502;-36
2024/04/18 03:33:33;;;;;;;7.27;4.93;;;4.90;95.80;;;6.93;62.38;97142.72;5450325;26;20031;-36
2024/04/18 03:36:04;;;;;;;8.30;5.03;;;4.90;95.50;;;6.89;62.27;97134.25;5447862;26;20039;-36
2024/04/18 03:38:32;;;;;;;7.50;4.83;;;4.90;95.20;;;6.87;62.46;97139.69;5449853;26;20042;-36
2024/04/18 03:41:00;;;;;;;9.83;5.87;;;4.80;95.40;;;6.84;62.31;97137.38;5450021;26;20479;-35
2024/04/18 03:43:27;;;;;;;7.33;5.27;;;4.80;96.20;;;6.86;62.34;97140.69;5449611;26;20026;-36
2024/04/18 03:46:01;;;;;;;8.10;5.30;;;4.80;96.20;;;6.87;62.38;97138.88;5449300;26;20054;-35
2024/04/18 03:48:29;;;;;;;;;;;4.90;96.60;;;6.81;62.84;97142.94;5418101;26;20042;-36
2024/04/18 03:50:57;;;;;;;8.53;5.70;;;4.80;95.70;;;6.81;62.27;97137.66;5449916;26;19965;-36
2024/04/18 03:53:45;;;;;;;9.23;5.87;;;4.80;96.90;;;6.82;62.56;97138.47;5436450;26;20031;-36
2024/04/18 03:56:13;;;;;;;8.93;5.80;;;4.80;96.10;;;6.81;62.33;97137.66;5449266;26;20425;-36
2024/04/18 03:58:40;;;;;;;9.43;6.03;;;4.80;96.80;;;6.82;62.59;97144.59;5449366;26;20035;-36
2024/04/18 04:01:08;;;;;;;8.17;5.70;;;4.80;96.90;;;6.81;62.62;97147.41;5402915;26;20054;-36
2024/04/18 04:03:36;;;;;;;11.13;5.37;;;4.90;96.50;;;6.81;62.72;97150.06;5432421;26;20430;-36
2024/04/18 04:06:04;;;;;;;8.63;5.80;;;4.80;97.20;;;6.83;62.97;97148.09;5448657;26;20034;-36
2024/04/18 04:08:32;;;;;;;7.80;5.60;;;4.90;97.00;;;6.85;62.72;97159.34;5449298;26;20042;-36
2024/04/18 04:11:13;;;;;;;9.27;5.43;;;4.90;97.30;;;6.81;62.78;97153.53;5449032;26;20043;-36
2024/04/18 04:13:41;;;;;;;9.43;6.50;;;4.80;97.10;;;6.79;63.18;97154.66;5432239;26;20035;-36
2024/04/18 04:16:19;;;;;;;8.97;6.03;;;4.80;97.50;;;6.81;62.81;97156.19;5447414;26;20031;-36
2024/04/18 04:18:52;;;;;;;9.57;6.20;;;4.80;97.60;;;6.81;63.04;97158.81;5449285;26;20043;-36
2024/04/18 04:21:38;;;;;;;11.13;6.23;;;4.80;97.10;;;6.75;62.49;97156.78;5448820;26;20031;-36
2024/04/18 04:24:07;;;;;;;9.03;6.63;;;4.80;97.50;;;6.74;63.21;97170.16;5448438;26;20027;-35
2024/04/18 04:26:51;;;;;;;9.37;6.80;;;4.70;97.80;;;6.73;62.70;97166.69;5437075;26;20046;-36
2024/04/18 04:29:19;;;;;;;12.93;7.60;;;4.80;98.20;;;6.77;62.90;97175.97;5415191;26;20030;-36
2024/04/18 04:31:47;;;;;;;10.03;6.90;;;4.80;98.30;;;6.80;63.08;97177.47;5452504;26;20393;-36
2024/04/18 04:34:17;;;;;;;10.83;6.67;;;4.80;98.30;;;6.81;63.24;97173.88;5420805;26;20365;-36
2024/04/18 04:36:45;;;;;;;7.93;6.23;;;4.80;98.20;;;6.82;63.39;97171.06;5438814;26;20047;-36
2024/04/18 04:39:13;;;;;;;8.80;6.27;;;4.80;98.60;;;6.85;63.06;97184.00;5452506;26;20371;-36
2024/04/18 04:41:41;;;;;;;8.83;6.70;;;4.90;97.10;;;6.79;63.24;97184.59;5449928;26;20491;-36
2024/04/18 04:44:09;;;;;;;9.90;6.43;;;4.80;97.60;;;6.83;63.30;97185.13;5452123;26;20039;-35
2024/04/18 04:46:50;;;;;;;9.03;6.30;;;4.90;97.60;;;6.84;63.31;97197.38;5410445;26;20034;-35
2024/04/18 04:49:21;;;;;;;9.73;7.00;;;4.90;97.50;;;6.87;63.09;97197.91;5420055;26;20046;-35
2024/04/18 04:52:03;;;;;;;9.83;6.37;;;4.90;97.70;;;6.92;62.89;97212.50;5452456;26;20378;-35
2024/04/18 04:54:41;;;;;;;9.10;6.47;;;4.90;97.40;;;6.89;63.04;97211.81;5451750;26;20043;-36
2024/04/18 04:57:11;;;;;;;9.07;6.73;;;4.90;97.60;;;6.92;63.34;97205.41;5452369;26;20371;-35
2024/04/18 04:59:39;;;;;;;7.97;6.23;;;4.90;98.10;;;6.95;63.10;97218.34;5452412;26;20038;-35
2024/04/18 05:02:07;;;;;;;11.07;6.43;;;5.00;97.70;;;6.97;62.98;97216.38;5452016;26;20363;-35
2024/04/18 05:04:50;;;;;;;13.27;7.83;;;5.00;98.20;;;6.99;63.28;97222.34;5437901;26;20027;-35
2024/04/18 05:07:31;;;;;;;10.27;7.50;;;5.00;97.90;;;6.97;63.17;97226.97;5412174;26;20047;-35
2024/04/18 05:10:19;;;;;;;10.10;7.33;;;5.00;96.70;;;6.96;63.14;97222.66;5424627;26;20035;-35
2024/04/18 05:12:51;;;;;;;9.77;7.07;;;5.00;97.60;;;6.97;62.92;97226.97;5437385;26;20030;-35
2024/04/18 05:15:35;;;;;;;8.17;6.40;;;5.00;96.90;;;6.84;63.16;97237.91;5451491;26;20361;-35
2024/04/18 05:18:04;;;;;;;10.23;7.30;;;4.80;96.90;;;6.88;63.23;97238.44;5451868;26;20612;-36
2024/04/18 05:20:32;;;;;;;9.93;7.17;;;4.80;99.10;;;6.83;63.77;97243.34;5420155;26;20381;-36
2024/04/18 05:23:00;;;;;;;10.67;6.83;;;4.80;99.80;;;6.84;63.82;97245.00;5451846;26;20030;-36
2024/04/18 05:25:28;;;;;;;9.37;7.07;;;4.80;99.90;;;6.82;63.55;97237.19;5451043;26;20041;-36
2024/04/18 05:28:20;;;;;;;9.93;6.70;;;4.80;99.10;;;6.86;63.79;97243.88;5450357;26;20030;-35
2024/04/18 05:31:01;;;;;;;;;;;4.90;99.90;;;6.94;63.56;97252.88;5420566;26;20030;-35
2024/04/18 05:33:34;;;;;;;9.77;6.53;;;5.00;99.70;;;6.90;63.58;97245.25;5451637;26;19952;-36
2024/04/18 05:36:03;;;;;;;9.80;6.50;;;4.90;98.80;;;6.97;63.60;97257.91;5451220;26;20035;-35
2024/04/18 05:38:31;;;;;;;8.80;6.47;;;5.00;99.20;;;6.96;63.57;97265.00;5418914;26;20034;-35
2024/04/18 05:40:59;;;;;;;10.27;6.60;;;5.00;99.00;;;6.97;63.67;97258.72;5418768;26;20035;-36
2024/04/18 05:43:47;;;;;;;9.83;6.30;;;5.00;99.50;;;6.95;63.70;97270.44;5450740;26;20115;-35
2024/04/18 05:46:15;;;;;;;9.13;6.63;;;4.90;98.80;;;7.00;63.58;97273.47;5420153;26;20030;-35
2024/04/18 05:48:44;;;;;;;8.00;6.30;;;5.00;99.90;;;6.98;63.59;97270.13;5449058;26;20050;-35
2024/04/18 05:51:12;;;;;;;7.77;6.03;;;5.00;98.00;;;6.96;63.74;97277.38;5451419;26;20036;-35
2024/04/18 05:53:52;;;;;;;8.93;6.90;;;5.00;99.90;;;6.99;63.80;97277.09;5408705;26;20039;-35
2024/04/18 05:56:28;;;;;;;8.73;5.97;;;5.00;99.00;;;6.98;63.76;97284.22;5451778;26;20031;-35
2024/04/18 05:58:57;;;;;;;12.37;6.30;;;5.00;99.50;;;6.99;63.71;97290.34;5451487;26;20034;-34
2024/04/18 06:01:24;;;;;;;7.37;5.83;;;5.00;99.20;;;6.97;63.47;97297.59;5451214;26;20062;-35
2024/04/18 06:03:52;;;;;;;8.70;6.00;;;5.00;99.90;;;6.95;63.98;97299.56;5450745;26;20449;-35
2024/04/18 06:06:20;;;;;;;10.97;5.50;;;4.90;99.70;;;6.94;63.88;97303.16;5449682;26;20039;-35
2024/04/18 06:08:50;;;;;;;5.87;4.43;;;4.90;99.70;;;6.88;63.66;97302.78;5449403;26;20051;-35
2024/04/18 06:11:17;;;;;;;3.17;2.60;;;4.90;97.50;;;6.69;63.75;97319.56;5450423;26;20038;-35
2024/04/18 06:13:45;;;;;;;3.47;2.30;;;4.70;96.80;;;6.75;63.63;97320.81;5449785;26;20054;-35
2024/04/18 06:16:13;;;;;;;4.17;2.30;;;4.80;96.40;;;6.62;63.32;97318.47;5451127;26;20474;-35
2024/04/18 06:18:50;;;;;;;3.27;2.80;;;4.70;95.00;;;6.58;63.43;97322.38;5450903;26;20369;-35
2024/04/18 06:21:17;;;;;;;5.50;3.03;;;4.70;97.00;;;6.67;63.68;97329.47;5450698;26;20483;-35
2024/04/18 06:23:45;;;;;;;3.63;2.77;;;4.70;97.50;;;6.59;63.91;97326.72;5451393;26;20121;-35
2024/04/18 06:26:16;;;;;;;3.80;2.60;;;4.70;98.50;;;6.65;63.91;97330.56;5447071;26;20047;-34
2024/04/18 06:28:45;;;;;;;3.33;2.63;;;4.70;96.80;;;6.48;64.03;97338.28;5449783;26;20050;-35
2024/04/18 06:31:15;;;;;;;6.17;3.13;;;4.60;95.50;;;6.45;64.12;97340.38;5451284;26;20382;-35
2024/04/18 06:33:44;;;;;;;3.47;2.53;;;4.50;96.80;;;6.42;64.03;97340.69;5451027;26;20032;-34
2024/04/18 06:36:12;;;;;;;3.33;2.47;;;4.50;97.80;;;6.30;64.18;97346.13;5450380;26;20030;-34
2024/04/18 06:38:40;;;;;;;4.07;2.37;;;4.40;98.00;;;6.41;64.20;97347.75;5449812;26;20501;-34
2024/04/18 06:41:09;;;;;;;4.33;2.60;;;4.50;99.90;;;6.52;63.84;97352.06;5450752;26;20482;-35
2024/04/18 06:43:43;;;;;;;2.97;2.40;;;4.60;98.80;;;6.57;63.63;97355.13;5450714;26;20095;-35
2024/04/18 06:46:10;;;;;;;3.27;2.60;;;4.60;98.10;;;6.52;63.93;97356.53;5447759;26;20031;-35
2024/04/18 06:48:38;;;;;;;5.60;3.67;;;4.60;96.30;;;6.49;63.84;97360.28;5450142;26;20030;-35
2024/04/18 06:51:06;;;;;;;4.30;3.10;;;4.50;96.50;;;6.52;63.78;97359.16;5418697;26;20043;-35
2024/04/18 06:53:34;;;;;;;3.17;2.63;;;4.60;97.80;;;6.53;63.86;97366.09;5449698;26;20043;-35
2024/04/18 06:56:02;;;;;;;3.17;2.77;;;4.60;97.00;;;6.58;64.04;97369.19;5418133;26;20006;-35
2024/04/18 06:58:29;;;;;;;5.20;2.87;;;4.70;97.10;;;6.57;63.96;97365.69;5450028;26;20040;-34
2024/04/18 07:00:59;;;;;;;4.83;2.40;;;4.70;96.80;;;6.60;63.71;97369.88;5390064;26;20316;-35
2024/04/18 07:03:27;;;;;;;5.43;3.23;;;4.70;97.00;;;6.60;63.99;97373.34;5417865;26;20028;-34
2024/04/18 07:05:56;;;;;;;4.13;3.10;;;4.70;96.10;;;6.60;63.62;97373.34;5435340;26;20458;-34
2024/04/18 07:08:26;;;;;;;3.83;2.73;;;4.70;96.30;;;6.65;63.78;97383.47;5450102;26;20030;-36
2024/04/18 07:10:54;;;;;;;3.97;2.63;;;4.80;95.60;;;6.68;63.89;97380.56;5417689;26;20051;-35
2024/04/18 07:13:29;;;;;;;3.47;2.55;;;4.80;97.20;;;6.63;63.92;97383.66;5448731;26;20026;-35
2024/04/18 07:16:04;;;;;;;3.97;3.10;;;4.80;96.40;;;6.81;63.88;97382.91;5434246;26;20017;-35
2024/04/18 07:18:50;;;;;;;3.73;2.97;;;5.00;97.30;;;6.92;63.91;97390.66;5448488;26;20483;-35
2024/04/18 07:21:18;;;;;;;2.67;2.40;;;5.10;96.00;;;6.86;63.91;97391.22;5418224;26;20039;-35
2024/04/18 07:23:46;;;;;;;3.40;2.50;;;5.10;93.90;;;6.88;63.77;97397.19;5418685;26;20030;-35
2024/04/18 07:26:34;;;;;;;4.00;2.17;;;5.10;94.90;;;6.84;63.40;97394.03;5423403;26;20398;-34
2024/04/18 07:29:03;;;;;;;3.17;2.17;;;5.00;95.00;;;6.93;63.56;97405.56;5417470;26;20051;-35
2024/04/18 07:31:31;;;;;;;2.97;2.10;;;5.10;93.70;;;6.90;63.42;97401.41;5417774;26;20378;-35
2024/04/18 07:34:14;;;;;;;3.03;2.10;;;5.10;93.50;;;6.84;62.99;97414.34;5449445;26;20067;-35
2024/04/18 07:36:47;;;;;;;2.13;1.73;;;4.90;91.30;;;6.89;63.01;97418.22;5449361;26;20043;-35
2024/04/18 07:39:15;;;;;;;3.07;2.33;;;5.00;92.40;;;6.80;62.86;97416.44;5417994;26;20030;-35
2024/04/18 07:41:43;;;;;;;3.23;2.00;;;5.00;92.20;;;6.80;62.72;97426.19;5418174;26;20486;-35
2024/04/18 07:44:11;;;;;;;4.83;2.10;;;5.00;91.60;;;6.86;62.79;97426.47;5417987;26;20038;-35
2024/04/18 07:46:39;;;;;;;2.23;1.90;;;5.00;92.80;;;6.87;63.18;97430.78;5449446;26;20031;-35
2024/04/18 07:49:08;;;;;;;2.27;1.60;;;5.00;93.30;;;6.70;63.10;97437.63;5408380;26;20382;-35
2024/04/18 07:51:37;;;;;;;2.20;1.67;;;4.90;92.50;;;6.73;63.04;97438.31;5411119;26;20385;-35
2024/04/18 07:54:06;;;;;;;2.57;2.00;;;4.90;93.90;;;6.70;63.45;97445.56;5436868;26;20056;-35
2024/04/18 07:56:33;;;;;;;2.30;1.97;;;4.90;93.20;;;6.72;63.32;97453.38;5407639;26;20006;-35
2024/04/18 07:59:03;;;;;;;2.70;1.80;;;4.90;94.80;;;6.72;63.45;97452.53;5439026;26;20466;-36
2024/04/18 08:01:32;;;;;;;4.00;2.50;;;4.80;94.70;;;6.73;63.11;97456.84;5442540;26;20037;-35
2024/04/18 08:04:02;;;;;;;2.37;1.80;;;4.90;94.10;;;6.80;63.23;97463.25;5438180;26;20021;-35
2024/04/18 08:06:51;;;;;;;4.30;1.87;;;4.90;94.00;;;6.79;63.00;97458.94;5442032;26;20017;-35
2024/04/18 08:09:23;;;;;;;2.50;1.70;;;4.90;93.20;;;6.81;63.24;97464.94;5439084;26;20010;-35
2024/04/18 08:11:56;;;;;;;2.03;1.55;;;5.00;93.70;;;6.92;63.16;97471.84;5439867;26;20851;-35
2024/04/18 08:14:27;;;;;;;2.37;1.80;;;5.00;93.40;;;6.84;63.39;97467.28;5438735;26;20003;-35
2024/04/18 08:17:01;;;;;;;2.30;1.87;;;5.00;94.00;;;6.89;63.41;97473.81;5440170;26;20077;-35
2024/04/18 08:19:29;;;;;;;2.63;1.90;;;5.10;94.00;;;6.97;63.10;97475.75;5435905;26;20013;-35
2024/04/18 08:21:57;;;;;;;3.30;2.37;;;5.10;94.10;;;6.90;63.18;97486.09;5441933;26;20557;-35
2024/04/18 08:24:27;;;;;;;3.27;2.17;;;5.10;92.40;;;6.86;63.44;97490.00;5441247;26;20002;-35
2024/04/18 08:27:08;;;;;;;2.67;2.00;;;5.10;93.20;;;6.88;63.26;97490.69;5441034;26;20073;-35
2024/04/18 08:29:36;;;;;;;4.33;2.50;;;5.00;93.20;;;6.98;62.97;97482.72;5407127;26;20354;-35
2024/04/18 08:32:04;;;;;;;3.27;2.70;;;5.10;94.60;;;7.18;63.15;97485.31;5437739;26;20353;-35
2024/04/18 08:34:32;;;;;;;3.23;2.67;;;5.30;93.50;;;7.20;62.66;97499.25;5441457;26;20039;-35
2024/04/18 08:37:02;;;;;;;7.53;4.17;;;5.30;93.00;;;7.26;62.87;97501.31;5441493;26;20007;-35
2024/04/18 08:39:30;;;;;;;3.30;2.40;;;5.40;93.20;;;7.29;62.74;97496.56;5437925;26;20011;-35
2024/04/18 08:41:59;;;;;;;3.10;2.30;;;5.50;92.60;;;7.33;62.64;97498.91;5408088;26;20338;-35
2024/04/18 08:44:27;;;;;;;3.40;2.50;;;5.50;92.10;;;7.42;62.55;97506.84;5437727;26;19995;-35
2024/04/18 08:46:57;;;;;;;5.17;2.50;;;5.60;91.20;;;7.48;62.62;97510.72;5433367;26;19999;-35
2024/04/18 08:49:27;;;;;;;5.20;3.10;;;5.70;91.30;;;7.45;62.50;97509.19;5436851;26;20024;-35
2024/04/18 08:51:55;;;;;;;4.20;3.07;;;5.70;92.00;;;7.64;62.98;97503.00;5437379;26;20364;-35
2024/04/18 08:54:22;;;;;;;6.40;3.73;;;5.90;93.10;;;7.68;62.85;97506.19;5407158;26;20007;-35
2024/04/18 08:56:53;;;;;;;4.83;3.57;;;6.00;92.10;;;7.85;62.86;97515.16;5434440;26;20025;-35
2024/04/18 08:59:22;;;;;;;4.90;3.97;;;6.20;91.00;;;7.93;62.83;97517.94;5402538;26;20002;-35
2024/04/18 09:01:50;;;;;;;4.57;3.20;;;6.20;90.30;;;8.02;62.50;97509.06;5401996;26;20359;-35
2024/04/18 09:04:18;;;;;;;4.17;2.83;;;6.40;91.10;;;8.17;62.49;97521.84;5403433;26;20030;-35
2024/04/18 09:06:46;;;;;;;5.73;4.40;;;6.50;90.40;;;8.22;61.87;97508.94;5438650;26;20062;-35
2024/04/18 09:09:16;;;;;;;5.87;4.33;;;6.60;89.20;;;8.23;62.22;97519.41;5438705;26;20351;-35
2024/04/18 09:11:46;;;;;;;5.83;4.13;;;6.60;87.90;;;8.14;61.63;97519.47;5438634;26;20042;-35
2024/04/18 09:14:14;;;;;;;5.93;4.63;;;6.40;87.80;;;8.23;61.75;97511.44;5439937;26;20002;-45
2024/04/18 09:16:43;;;;;;;5.77;4.20;;;6.50;89.00;;;8.31;61.57;97515.19;5441125;26;20369;-35
2024/04/18 09:19:11;;;;;;;9.97;5.03;;;6.60;88.40;;;8.12;60.90;97518.78;5443948;26;20039;-35
2024/04/18 09:21:41;;;;;;;7.10;4.53;;;6.40;85.00;;;8.12;61.17;97522.25;5406708;26;20289;-35
2024/04/18 09:24:09;;;;;;;5.10;4.40;;;6.40;84.70;;;8.16;60.77;97512.19;5407462;26;20013;-35
2024/04/18 09:26:36;;;;;;;7.63;5.33;;;6.50;86.40;;;8.28;61.46;97521.63;5408124;26;20328;-35
2024/04/18 09:29:04;;;;;;;6.73;4.80;;;6.70;87.90;;;8.39;61.26;97518.75;5438149;26;20014;-35
2024/04/18 09:31:32;;;;;;;5.97;4.37;;;6.80;87.00;;;8.53;60.86;97524.53;5413895;26;20042;-35
2024/04/18 09:34:17;;;;;;;6.43;5.37;;;6.90;84.00;;;8.57;60.52;97521.47;5443212;26;20040;-36
2024/04/18 09:36:46;;;;;;;6.13;4.90;;;6.90;84.70;;;8.72;60.35;97526.22;5443388;26;20377;-35
2024/04/18 09:39:27;;;;;;;6.13;4.83;;;7.10;84.70;;;8.72;60.12;97520.91;5430807;26;20480;-35
2024/04/18 09:42:16;;;;;;;5.27;4.07;;;7.20;82.00;;;8.73;59.12;97518.09;5451135;26;20039;-35
2024/04/18 09:44:53;;;;;;;6.63;5.10;;;7.20;79.70;;;8.67;59.46;97526.69;5450729;26;20428;-35
2024/04/18 09:47:25;;;;;;;7.07;4.50;;;7.00;82.30;;;8.87;59.43;97535.31;5393805;26;20035;-35
2024/04/18 09:49:54;;;;;;;7.07;5.90;;;7.20;83.10;;;8.52;59.74;97539.63;5451419;26;20038;-35
2024/04/18 09:52:24;;;;;;;6.70;5.73;;;6.90;82.60;;;8.57;60.52;97534.72;5419914;26;20043;-35
2024/04/18 09:54:55;;;;;;;8.73;5.87;;;6.90;85.60;;;8.74;60.05;97535.69;5417891;26;20030;-35
2024/04/18 09:57:25;;;;;;;10.27;6.10;;;7.00;85.40;;;8.70;60.30;97546.78;5417356;26;20035;-35
2024/04/18 09:59:53;;;;;;;6.30;5.07;;;7.00;85.00;;;8.76;59.97;97547.00;5419830;26;20030;-35
2024/04/18 10:02:23;;;;;;;8.43;5.00;;;7.00;84.70;;;8.69;59.83;97540.63;5419708;26;20043;-35
2024/04/18 10:04:52;;;;;;;8.67;5.27;;;6.90;83.30;;;8.66;59.29;97552.38;5419348;26;20043;-35
2024/04/18 10:07:24;;;;;;;8.57;5.37;;;6.80;82.90;;;8.63;59.72;97560.66;5389273;26;20483;-35
2024/04/18 10:09:53;;;;;;;5.67;4.13;;;6.80;83.40;;;8.42;59.64;97576.84;5450800;26;20038;-35
2024/04/18 10:12:32;;;;;;;6.10;4.83;;;6.50;86.20;;;8.30;59.88;97580.66;5450545;26;20035;-35
2024/04/18 10:15:00;;;;;;;7.67;5.10;;;6.20;88.70;;;8.25;60.33;97575.78;5450572;26;20039;-35
2024/04/18 10:17:32;;;;;;;7.90;5.43;;;6.20;89.40;;;8.28;60.47;97580.00;5419349;26;20017;-36
2024/04/18 10:20:01;;;;;;;8.20;5.43;;;6.20;91.50;;;8.16;60.23;97570.53;5451036;26;20039;-35
2024/04/18 10:22:29;;;;;;;7.23;5.23;;;6.00;88.70;;;8.15;60.38;97579.50;5451008;26;20098;-35
2024/04/18 10:25:19;;;;;;;6.97;5.37;;;6.00;91.30;;;8.17;60.57;97572.22;5449858;26;20031;-35
2024/04/18 10:27:47;;;;;;;;;;;6.00;90.80;;;8.24;60.77;97574.13;5448871;26;20030;-35
2024/04/18 10:30:18;;;;;;;7.87;5.90;;;6.20;91.30;;;8.30;60.69;97575.38;5435880;26;19948;-35
2024/04/18 10:32:48;;;;;;;8.73;6.07;;;6.30;90.80;;;8.42;61.18;97573.38;5450993;26;20054;-35
2024/04/18 10:35:17;;;;;;;7.80;6.10;;;6.50;92.00;;;8.50;61.08;97580.59;5404670;26;20030;-35
2024/04/18 10:37:51;;;;;;;8.37;6.40;;;6.70;89.40;;;8.59;61.09;97577.03;5451049;26;20031;-35
2024/04/18 10:40:19;;;;;;;7.43;5.88;;;6.80;87.60;;;8.70;61.29;97579.44;5436344;26;20035;-35
2024/04/18 10:42:46;;;;;;;10.20;6.03;;;7.00;90.10;;;8.59;61.23;97585.81;5448729;26;20030;-36
2024/04/18 10:45:15;;;;;;;8.70;6.23;;;6.90;87.60;;;8.63;61.15;97592.50;5447994;26;20330;-36
2024/04/18 10:47:48;;;;;;;8.27;6.40;;;6.90;89.20;;;8.65;61.15;97582.56;5418621;26;20026;-36
2024/04/18 10:50:17;;;;;;;8.20;6.47;;;6.90;89.10;;;8.65;61.36;97587.88;5449603;26;20488;-37
2024/04/18 10:52:47;;;;;;;8.27;5.87;;;6.90;90.00;;;8.69;61.64;97590.25;5416629;26;20002;-35
2024/04/18 10:55:14;;;;;;;8.50;5.43;;;7.00;89.80;;;8.57;61.42;97593.09;5387965;26;20026;-36
2024/04/18 10:57:42;;;;;;;9.27;6.53;;;6.90;87.80;;;8.66;61.57;97583.38;5450355;26;20057;-36